createdAt,value
2022-11-30T00:01:24.683Z,31.13
2022-11-30T00:03:56.612Z,29.93
2022-11-30T00:06:25.535Z,29.53
2022-11-30T00:08:54.066Z,29.50
2022-11-30T00:11:23.447Z,31.17
2022-11-30T00:13:51.404Z,31.87
2022-11-30T00:16:19.323Z,31.17
2022-11-30T00:18:47.188Z,31.43
2022-11-30T00:21:16.743Z,32.50
2022-11-30T00:23:46.337Z,28.03
2022-11-30T00:26:16.562Z,28.37
2022-11-30T00:28:45.720Z,28.33
2022-11-30T00:31:15.244Z,30.77
2022-11-30T00:33:43.241Z,29.97
2022-11-30T00:36:13.930Z,29.73
2022-11-30T00:38:43.451Z,29.27
2022-11-30T00:41:11.523Z,29.50
2022-11-30T00:43:39.693Z,31.97
2022-11-30T00:46:09.246Z,30.50
2022-11-30T00:48:37.152Z,30.90
2022-11-30T00:51:05.353Z,30.53
2022-11-30T00:53:33.170Z,31.17
2022-11-30T00:56:02.382Z,30.67
2022-11-30T00:58:30.127Z,29.97
2022-11-30T01:00:57.922Z,31.83
2022-11-30T01:03:25.894Z,30.33
2022-11-30T01:05:53.652Z,30.77
2022-11-30T01:08:21.399Z,32.07
2022-11-30T01:10:53.290Z,31.80
2022-11-30T01:13:22.398Z,32.07
2022-11-30T01:15:50.212Z,31.50
2022-11-30T01:18:18.014Z,30.27
2022-11-30T01:20:45.752Z,31.20
2022-11-30T01:23:14.379Z,28.93
2022-11-30T01:25:42.185Z,32.80
2022-11-30T01:28:11.224Z,32.13
2022-11-30T01:30:40.338Z,31.40
2022-11-30T01:33:08.201Z,34.23
2022-11-30T01:35:35.949Z,32.03
2022-11-30T01:38:03.653Z,33.40
2022-11-30T01:40:31.512Z,32.67
2022-11-30T01:42:59.277Z,30.97
2022-11-30T01:45:27.074Z,30.37
2022-11-30T01:47:58.435Z,30.17
2022-11-30T01:50:31.478Z,31.17
2022-11-30T01:52:59.885Z,31.30
2022-11-30T01:55:33.486Z,31.17
2022-11-30T01:58:04.948Z,31.13
2022-11-30T02:00:32.796Z,30.43
2022-11-30T02:03:06.955Z,28.23
2022-11-30T02:05:35.693Z,28.80
2022-11-30T02:08:03.745Z,31.03
2022-11-30T02:10:33.709Z,30.30
2022-11-30T02:13:22.157Z,30.80
2022-11-30T02:15:59.816Z,30.33
2022-11-30T02:18:34.236Z,32.87
2022-11-30T02:21:10.704Z,32.77
2022-11-30T02:24:05.051Z,32.63
2022-11-30T02:27:04.561Z,32.37
2022-11-30T02:29:35.838Z,31.97
2022-11-30T02:32:09.396Z,32.53
2022-11-30T02:34:38.940Z,32.53
2022-11-30T02:37:09.232Z,33.13
2022-11-30T02:39:36.942Z,30.87
2022-11-30T02:42:04.847Z,31.37
2022-11-30T02:44:34.449Z,32.03
2022-11-30T02:47:13.433Z,31.27
2022-11-30T02:49:49.358Z,29.97
2022-11-30T02:52:19.776Z,29.87
2022-11-30T02:54:47.934Z,30.80
2022-11-30T02:57:15.854Z,31.90
2022-11-30T02:59:45.097Z,30.03
2022-11-30T03:02:12.927Z,28.93
2022-11-30T03:04:40.718Z,31.00
2022-11-30T03:07:08.450Z,31.27
2022-11-30T03:09:36.210Z,28.93
2022-11-30T03:12:04.110Z,28.93
2022-11-30T03:14:31.829Z,29.50
2022-11-30T03:17:01.009Z,30.93
2022-11-30T03:19:28.917Z,30.43
2022-11-30T03:21:56.642Z,30.37
2022-11-30T03:24:24.500Z,32.00
2022-11-30T03:26:53.009Z,31.77
2022-11-30T03:29:20.826Z,31.50
2022-11-30T03:31:48.610Z,32.73
2022-11-30T03:34:17.684Z,34.10
2022-11-30T03:36:45.636Z,32.00
2022-11-30T03:39:13.387Z,32.17
2022-11-30T03:41:41.120Z,35.17
2022-11-30T03:44:08.818Z,34.13
2022-11-30T03:46:36.660Z,34.43
2022-11-30T03:49:04.634Z,34.10
2022-11-30T03:51:33.742Z,34.77
2022-11-30T03:54:01.581Z,33.33
2022-11-30T03:56:30.370Z,36.37
2022-11-30T03:58:58.330Z,35.97
2022-11-30T04:01:26.638Z,36.73
2022-11-30T04:03:54.605Z,35.07
2022-11-30T04:06:22.857Z,35.73
2022-11-30T04:08:52.225Z,34.40
2022-11-30T04:11:20.041Z,35.57
2022-11-30T04:13:47.756Z,34.53
2022-11-30T04:16:15.583Z,36.33
2022-11-30T04:18:43.581Z,37.40
2022-11-30T04:21:12.007Z,35.63
2022-11-30T04:23:41.014Z,36.03
2022-11-30T04:26:13.763Z,34.40
2022-11-30T04:28:42.110Z,34.73
2022-11-30T04:31:10.450Z,35.00
2022-11-30T04:33:38.568Z,35.00
2022-11-30T04:36:08.091Z,35.73
2022-11-30T04:38:37.499Z,33.67
2022-11-30T04:41:08.859Z,33.13
2022-11-30T04:43:38.178Z,32.30
2022-11-30T04:46:06.355Z,31.37
2022-11-30T04:48:34.586Z,31.97
2022-11-30T04:51:03.421Z,28.87
2022-11-30T04:53:31.183Z,29.17
2022-11-30T04:55:59.040Z,30.83
2022-11-30T04:58:26.761Z,29.37
2022-11-30T05:00:56.308Z,31.13
2022-11-30T05:03:24.130Z,28.27
2022-11-30T05:05:51.866Z,29.13
2022-11-30T05:08:20.312Z,29.53
2022-11-30T05:10:53.240Z,29.83
2022-11-30T05:13:21.418Z,29.13
2022-11-30T05:15:49.291Z,30.57
2022-11-30T05:18:18.716Z,31.73
2022-11-30T05:20:49.187Z,33.50
2022-11-30T05:23:17.234Z,34.27
2022-11-30T05:25:45.819Z,35.80
2022-11-30T05:28:14.136Z,36.00
2022-11-30T05:30:43.506Z,34.77
2022-11-30T05:33:11.700Z,37.23
2022-11-30T05:35:41.161Z,37.03
2022-11-30T05:38:08.935Z,37.07
2022-11-30T05:40:37.068Z,36.87
2022-11-30T05:43:05.808Z,39.00
2022-11-30T05:45:33.635Z,39.47
2022-11-30T05:48:01.466Z,38.30
2022-11-30T05:50:29.280Z,37.63
2022-11-30T05:53:00.760Z,34.30
2022-11-30T05:55:31.053Z,34.10
2022-11-30T05:58:00.714Z,32.67
2022-11-30T06:00:28.580Z,33.30
2022-11-30T06:02:58.322Z,31.23
2022-11-30T06:05:26.809Z,30.67
2022-11-30T06:07:55.020Z,29.73
2022-11-30T06:10:25.339Z,30.10
2022-11-30T06:12:53.707Z,27.60
2022-11-30T06:15:21.508Z,27.77
2022-11-30T06:17:49.263Z,27.40
2022-11-30T06:20:17.235Z,25.23
2022-11-30T06:22:47.588Z,26.70
2022-11-30T06:25:15.766Z,26.20
2022-11-30T06:27:44.931Z,25.93
2022-11-30T06:30:14.081Z,24.90
2022-11-30T06:32:45.693Z,25.90
2022-11-30T06:35:13.492Z,24.37
2022-11-30T06:37:41.604Z,23.77
2022-11-30T06:40:11.155Z,24.90
2022-11-30T06:42:39.822Z,24.47
2022-11-30T06:45:09.945Z,23.17
2022-11-30T06:47:37.776Z,22.77
2022-11-30T06:50:08.172Z,23.33
2022-11-30T06:52:35.894Z,21.73
2022-11-30T06:55:04.118Z,21.87
2022-11-30T06:57:32.213Z,22.27
2022-11-30T07:00:00.073Z,22.23
2022-11-30T07:02:29.111Z,22.07
2022-11-30T07:04:56.919Z,22.27
2022-11-30T07:07:24.753Z,21.93
2022-11-30T07:09:52.573Z,22.30
2022-11-30T07:12:20.471Z,21.73
2022-11-30T07:14:48.321Z,21.50
2022-11-30T07:17:16.220Z,21.80
2022-11-30T07:19:46.081Z,20.77
2022-11-30T07:22:13.817Z,22.57
2022-11-30T07:25:01.120Z,22.20
2022-11-30T07:27:28.880Z,22.57
2022-11-30T07:29:56.584Z,21.30
2022-11-30T07:32:24.310Z,22.73
2022-11-30T07:34:53.376Z,23.50
2022-11-30T07:37:21.217Z,20.93
2022-11-30T07:39:48.940Z,20.63
2022-11-30T07:42:17.694Z,20.17
2022-11-30T07:44:45.760Z,21.53
2022-11-30T07:47:13.779Z,22.53
2022-11-30T07:49:41.569Z,22.57
2022-11-30T07:52:10.678Z,22.17
2022-11-30T07:54:38.401Z,22.17
2022-11-30T07:57:06.424Z,22.23
2022-11-30T07:59:34.208Z,22.73
2022-11-30T08:02:02.142Z,20.87
2022-11-30T08:04:30.104Z,21.57
2022-11-30T08:06:57.953Z,21.57
2022-11-30T08:09:27.073Z,22.07
2022-11-30T08:11:54.833Z,22.23
2022-11-30T08:14:22.588Z,22.67
2022-11-30T08:16:51.773Z,21.93
2022-11-30T08:19:19.812Z,21.00
2022-11-30T08:21:47.843Z,21.70
2022-11-30T08:24:15.920Z,22.33
2022-11-30T08:26:45.364Z,21.30
2022-11-30T08:29:13.160Z,22.20
2022-11-30T08:31:41.070Z,20.43
2022-11-30T08:34:11.262Z,21.63
2022-11-30T08:36:39.687Z,22.10
2022-11-30T08:39:09.482Z,22.07
2022-11-30T08:41:39.022Z,21.03
2022-11-30T08:44:08.322Z,22.63
2022-11-30T08:46:53.220Z,21.23
2022-11-30T08:49:23.502Z,21.63
2022-11-30T08:57:32.600Z,20.17
2022-11-30T09:00:01.790Z,21.67
2022-11-30T09:02:29.539Z,22.33
2022-11-30T09:04:57.578Z,21.23
2022-11-30T09:07:25.292Z,20.57
2022-11-30T09:09:53.034Z,21.03
2022-11-30T09:12:20.758Z,22.10
2022-11-30T09:14:55.574Z,21.37
2022-11-30T09:17:26.834Z,20.13
2022-11-30T09:19:55.108Z,21.10
2022-11-30T09:22:22.880Z,20.93
2022-11-30T09:24:50.920Z,20.97
2022-11-30T09:27:18.854Z,21.83
2022-11-30T09:29:46.957Z,21.27
2022-11-30T09:32:14.670Z,23.57
2022-11-30T09:34:44.316Z,21.50
2022-11-30T09:37:12.178Z,22.47
2022-11-30T09:39:39.952Z,23.00
2022-11-30T09:42:32.310Z,23.93
2022-11-30T09:45:04.572Z,23.97
2022-11-30T09:47:43.846Z,24.47
2022-11-30T09:50:16.275Z,23.23
2022-11-30T09:52:47.904Z,26.13
2022-11-30T09:55:23.410Z,25.73
2022-11-30T09:57:55.154Z,27.07
2022-11-30T10:00:25.039Z,28.07
2022-11-30T10:02:54.864Z,30.50
2022-11-30T10:05:29.032Z,28.50
2022-11-30T10:08:20.453Z,28.13
2022-11-30T10:10:57.149Z,30.43
2022-11-30T10:13:40.249Z,29.50
2022-11-30T10:16:17.590Z,29.50
2022-11-30T10:18:55.945Z,28.37
2022-11-30T10:21:41.223Z,28.50
2022-11-30T10:24:20.662Z,28.70
2022-11-30T10:26:55.069Z,29.53
2022-11-30T10:29:31.235Z,29.77
2022-11-30T10:32:01.307Z,30.87
2022-11-30T10:34:34.640Z,29.90
2022-11-30T10:37:09.193Z,30.30
2022-11-30T10:39:40.271Z,31.30
2022-11-30T10:42:13.130Z,34.67
2022-11-30T10:44:46.475Z,36.53
2022-11-30T10:47:20.295Z,36.53
2022-11-30T10:49:52.696Z,36.77
2022-11-30T10:52:27.178Z,38.07
2022-11-30T10:55:02.262Z,37.77
2022-11-30T10:57:33.361Z,37.33
2022-11-30T11:00:05.166Z,39.47
2022-11-30T11:02:42.749Z,37.80
2022-11-30T11:05:17.920Z,36.93
2022-11-30T11:07:51.420Z,37.20
2022-11-30T11:10:21.567Z,40.63
2022-11-30T11:12:51.693Z,39.90
2022-11-30T11:15:23.068Z,38.70
2022-11-30T11:17:52.008Z,36.67
2022-11-30T11:20:35.015Z,38.60
2022-11-30T11:23:05.056Z,39.07
2022-11-30T11:25:35.386Z,38.77
2022-11-30T11:28:08.895Z,39.33
2022-11-30T11:30:37.921Z,38.57
2022-11-30T11:33:20.859Z,36.93
2022-11-30T11:35:50.576Z,38.60
2022-11-30T11:38:25.489Z,39.03
2022-11-30T11:41:02.110Z,37.73
2022-11-30T11:43:32.977Z,38.37
2022-11-30T11:46:04.099Z,38.03
2022-11-30T11:48:36.038Z,36.73
2022-11-30T11:51:08.265Z,37.47
2022-11-30T11:53:52.761Z,38.93
2022-11-30T11:56:26.341Z,36.70
2022-11-30T11:58:59.421Z,36.23
2022-11-30T12:01:41.521Z,37.47
2022-11-30T12:04:23.334Z,36.03
2022-11-30T12:06:55.931Z,37.00
2022-11-30T12:09:30.967Z,36.23
2022-11-30T12:11:58.687Z,36.10
2022-11-30T12:14:26.978Z,36.67
2022-11-30T12:17:10.764Z,35.10
2022-11-30T12:19:46.983Z,35.00
2022-11-30T12:22:28.901Z,36.17
2022-11-30T12:25:12.924Z,34.63
2022-11-30T12:27:54.089Z,36.13
2022-11-30T12:30:26.053Z,35.83
2022-11-30T12:33:13.689Z,36.17
2022-11-30T12:35:52.389Z,34.73
2022-11-30T12:38:30.320Z,35.00
2022-11-30T12:41:06.723Z,33.77
2022-11-30T12:43:44.892Z,32.37
2022-11-30T12:46:21.943Z,32.73
2022-11-30T12:49:03.352Z,31.03
2022-11-30T12:51:36.883Z,30.50
2022-11-30T12:54:13.903Z,30.70
2022-11-30T12:56:47.102Z,29.40
2022-11-30T12:59:23.842Z,30.60
2022-11-30T13:02:17.049Z,29.17
2022-11-30T13:04:50.806Z,28.87
2022-11-30T13:07:26.737Z,29.17
2022-11-30T13:09:58.586Z,30.80
2022-11-30T13:12:36.142Z,29.00
2022-11-30T13:15:09.776Z,30.03
2022-11-30T13:17:41.900Z,29.73
2022-11-30T13:20:22.195Z,29.40
2022-11-30T13:22:56.310Z,29.80
2022-11-30T13:26:06.452Z,28.13
2022-11-30T13:28:32.410Z,28.73
2022-11-30T13:31:08.321Z,29.17
2022-11-30T13:34:00.802Z,27.60
2022-11-30T13:36:34.572Z,28.00
2022-11-30T13:39:30.211Z,28.77
2022-11-30T13:42:37.486Z,28.97
2022-11-30T13:45:26.035Z,28.87
2022-11-30T13:47:55.608Z,28.53
2022-11-30T13:50:35.724Z,28.07
2022-11-30T13:53:34.300Z,27.33
2022-11-30T13:56:05.410Z,28.60
2022-11-30T13:58:33.507Z,28.10
2022-11-30T14:01:24.312Z,29.10
2022-11-30T14:04:23.732Z,28.80
2022-11-30T14:06:53.030Z,28.73
2022-11-30T14:10:08.795Z,28.80
2022-11-30T14:12:48.153Z,27.97
2022-11-30T14:15:53.443Z,28.60
2022-11-30T14:18:44.303Z,28.30
2022-11-30T14:21:17.783Z,28.60
2022-11-30T14:23:51.984Z,28.37
2022-11-30T14:26:27.018Z,28.30
2022-11-30T14:29:04.117Z,29.10
2022-11-30T14:31:37.845Z,30.13
2022-11-30T14:34:12.900Z,28.93
2022-11-30T14:36:44.875Z,30.73
2022-11-30T14:39:32.795Z,30.20
2022-11-30T14:42:00.882Z,30.33
2022-11-30T14:44:29.165Z,29.30
2022-11-30T14:46:57.288Z,29.53
2022-11-30T14:49:26.742Z,29.90
2022-11-30T14:52:03.420Z,30.53
2022-11-30T14:54:51.058Z,29.80
2022-11-30T14:57:25.503Z,31.80
2022-11-30T14:59:55.726Z,31.60
2022-11-30T15:02:31.453Z,30.47
2022-11-30T15:05:01.674Z,30.17
2022-11-30T15:07:30.633Z,31.20
2022-11-30T15:10:05.357Z,31.00
2022-11-30T15:12:34.409Z,31.80
2022-11-30T15:15:07.996Z,30.60
2022-11-30T15:17:53.509Z,31.90
2022-11-30T15:20:30.369Z,31.07
2022-11-30T15:22:59.386Z,32.10
2022-11-30T15:25:36.081Z,31.73
2022-11-30T15:28:05.085Z,32.10
2022-11-30T15:30:35.941Z,32.00
2022-11-30T15:33:04.173Z,32.07
2022-11-30T15:35:50.352Z,31.90
2022-11-30T15:38:23.513Z,32.70
2022-11-30T15:40:54.558Z,33.37
2022-11-30T15:43:26.846Z,32.10
2022-11-30T15:45:56.339Z,32.83
2022-11-30T15:48:30.253Z,34.47
2022-11-30T15:51:00.208Z,33.00
2022-11-30T15:53:33.720Z,31.40
2022-11-30T15:56:07.459Z,32.77
2022-11-30T15:58:39.897Z,34.43
2022-11-30T16:01:11.054Z,32.50
2022-11-30T16:04:01.036Z,31.27
2022-11-30T16:06:31.986Z,29.73
2022-11-30T16:09:07.712Z,31.73
2022-11-30T16:11:36.691Z,31.90
2022-11-30T16:14:05.673Z,31.70
2022-11-30T16:16:36.916Z,30.40
2022-11-30T16:19:07.689Z,31.47
2022-11-30T16:21:37.157Z,30.47
2022-11-30T16:24:08.018Z,31.57
2022-11-30T16:26:50.683Z,29.43
2022-11-30T16:29:19.290Z,28.80
2022-11-30T16:31:47.258Z,28.97
2022-11-30T16:34:15.278Z,28.17
2022-11-30T16:36:46.996Z,29.00
2022-11-30T16:39:14.692Z,27.03
2022-11-30T16:41:43.445Z,26.30
2022-11-30T16:44:14.399Z,25.30
2022-11-30T16:46:42.261Z,25.20
2022-11-30T16:49:10.079Z,26.90
2022-11-30T16:51:37.866Z,25.50
2022-11-30T16:54:07.143Z,25.10
2022-11-30T16:56:34.798Z,23.97
2022-11-30T16:59:05.517Z,23.70
2022-11-30T17:01:36.787Z,24.43
2022-11-30T17:04:11.243Z,23.97
2022-11-30T17:06:39.025Z,23.83
2022-11-30T17:09:12.764Z,24.73
2022-11-30T17:11:41.908Z,22.97
2022-11-30T17:14:12.149Z,23.43
2022-11-30T17:16:39.939Z,23.23
2022-11-30T17:19:11.153Z,24.83
2022-11-30T17:21:44.598Z,23.60
2022-11-30T17:24:14.472Z,22.73
2022-11-30T17:26:42.214Z,23.03
2022-11-30T17:29:26.294Z,23.43
2022-11-30T17:31:54.105Z,23.10
2022-11-30T17:34:21.997Z,22.97
2022-11-30T17:36:51.098Z,22.87
2022-11-30T17:39:20.360Z,22.67
2022-11-30T17:41:48.154Z,22.47
2022-11-30T17:44:16.010Z,21.70
2022-11-30T17:46:48.047Z,22.03
2022-11-30T17:49:16.202Z,21.93
2022-11-30T17:51:44.046Z,22.03
2022-11-30T17:54:12.301Z,22.33
2022-11-30T17:56:43.387Z,21.57
2022-11-30T17:59:11.220Z,21.03
2022-11-30T18:01:40.375Z,21.60
2022-11-30T18:04:08.720Z,22.00
2022-11-30T18:06:36.510Z,20.80
2022-11-30T18:09:04.553Z,21.93
2022-11-30T18:11:32.713Z,22.10
2022-11-30T18:14:03.512Z,20.70
2022-11-30T18:16:35.296Z,19.60
2022-11-30T18:19:03.254Z,18.80
2022-11-30T18:21:31.213Z,17.97
2022-11-30T18:23:59.682Z,17.63
2022-11-30T18:26:27.947Z,18.30
2022-11-30T18:28:57.334Z,17.03
2022-11-30T18:31:27.869Z,17.37
2022-11-30T18:33:56.826Z,16.07
2022-11-30T18:36:24.910Z,16.63
2022-11-30T18:38:52.901Z,14.90
2022-11-30T18:41:21.272Z,15.67
2022-11-30T18:43:49.042Z,14.73
2022-11-30T18:46:16.929Z,15.10
2022-11-30T18:48:50.028Z,15.73
2022-11-30T18:51:19.803Z,15.07
2022-11-30T18:53:48.014Z,15.40
2022-11-30T18:56:17.682Z,14.70
2022-11-30T18:58:46.333Z,15.57
2022-11-30T19:01:16.247Z,14.50
2022-11-30T19:03:44.141Z,16.23
2022-11-30T19:06:13.328Z,16.50
2022-11-30T19:08:41.602Z,16.30
2022-11-30T19:11:10.687Z,15.63
2022-11-30T19:13:38.476Z,15.90
2022-11-30T19:16:11.253Z,15.80
2022-11-30T19:18:39.608Z,16.30
2022-11-30T19:21:09.522Z,17.70
2022-11-30T19:23:39.646Z,15.93
2022-11-30T19:26:10.012Z,16.53
2022-11-30T19:28:39.843Z,16.47
2022-11-30T19:31:09.536Z,16.30
2022-11-30T19:33:38.093Z,17.43
2022-11-30T19:36:08.262Z,15.97
2022-11-30T19:38:36.041Z,16.20
2022-11-30T19:41:07.773Z,14.77
2022-11-30T19:43:35.925Z,16.40
2022-11-30T19:46:08.089Z,15.70
2022-11-30T19:48:36.229Z,16.23
2022-11-30T19:51:10.921Z,16.60
2022-11-30T19:53:42.861Z,14.37
2022-11-30T19:56:14.929Z,14.03
2022-11-30T19:58:43.859Z,14.23
2022-11-30T20:01:13.490Z,13.83
2022-11-30T20:03:41.361Z,14.10
2022-11-30T20:06:09.124Z,13.47
2022-11-30T20:08:38.661Z,13.67
2022-11-30T20:11:07.377Z,13.60
2022-11-30T20:13:36.891Z,13.73
2022-11-30T20:16:08.955Z,14.23
2022-11-30T20:18:40.092Z,14.90
2022-11-30T20:21:12.455Z,13.27
2022-11-30T20:23:40.859Z,12.73
2022-11-30T20:26:17.381Z,13.07
2022-11-30T20:28:47.159Z,14.17
2022-11-30T20:31:16.346Z,12.00
2022-11-30T20:33:44.223Z,12.60
2022-11-30T20:36:13.338Z,12.47
2022-11-30T20:38:46.563Z,11.90
2022-11-30T20:41:15.873Z,12.07
2022-11-30T20:43:44.122Z,12.23
2022-11-30T20:46:18.247Z,12.57
2022-11-30T20:48:49.196Z,12.50
2022-11-30T20:51:30.789Z,13.30
2022-11-30T20:54:00.758Z,11.90
2022-11-30T20:56:28.554Z,12.13
2022-11-30T20:58:56.595Z,12.27
2022-11-30T21:01:25.758Z,12.33
2022-11-30T21:03:53.790Z,12.80
2022-11-30T21:06:21.543Z,11.97
2022-11-30T21:08:49.285Z,13.00
2022-11-30T21:11:22.086Z,12.20
2022-11-30T21:13:51.472Z,12.93
2022-11-30T21:16:27.289Z,13.30
2022-11-30T21:18:58.711Z,13.40
2022-11-30T21:21:28.152Z,12.93
2022-11-30T21:23:55.979Z,13.73
2022-11-30T21:26:25.711Z,13.70
2022-11-30T21:28:56.404Z,13.60
2022-11-30T21:31:27.091Z,14.67
2022-11-30T21:33:55.964Z,14.23
2022-11-30T21:36:27.604Z,13.30
2022-11-30T21:39:04.141Z,12.93
2022-11-30T21:41:33.293Z,13.30
2022-11-30T21:44:01.118Z,13.50
2022-11-30T21:46:28.881Z,13.60
2022-11-30T21:49:11.945Z,12.90
2022-11-30T21:51:42.712Z,13.37
2022-11-30T21:54:17.357Z,12.57
2022-11-30T21:56:47.819Z,13.23
2022-11-30T21:59:19.223Z,12.83
2022-11-30T22:01:47.734Z,12.60
2022-11-30T22:04:17.502Z,12.80
2022-11-30T22:06:46.702Z,12.53
2022-11-30T22:09:16.278Z,13.83
2022-11-30T22:11:45.552Z,13.87
2022-11-30T22:14:15.764Z,13.57
2022-11-30T22:16:43.941Z,12.33
2022-11-30T22:19:11.826Z,12.70
2022-11-30T22:21:39.615Z,12.40
2022-11-30T22:24:11.529Z,13.63
2022-11-30T22:26:40.591Z,12.93
2022-11-30T22:29:12.360Z,13.83
2022-11-30T22:31:44.776Z,12.90
2022-11-30T22:34:13.086Z,12.27
2022-11-30T22:36:45.873Z,13.07
2022-11-30T22:39:17.397Z,11.20
2022-11-30T22:41:48.660Z,11.60
2022-11-30T22:44:20.954Z,11.57
2022-11-30T22:46:51.202Z,11.83
2022-11-30T22:49:21.529Z,12.00
2022-11-30T22:51:52.704Z,12.00
2022-11-30T22:54:21.803Z,10.80
2022-11-30T22:56:49.528Z,11.50
2022-11-30T22:59:19.621Z,11.37
2022-11-30T23:01:49.731Z,10.90
2022-11-30T23:04:19.300Z,10.97
2022-11-30T23:06:49.279Z,11.77
2022-11-30T23:09:22.030Z,11.10
2022-11-30T23:11:50.135Z,11.47
2022-11-30T23:14:18.329Z,11.20
2022-11-30T23:16:46.618Z,10.77
2022-11-30T23:19:15.568Z,10.53
2022-11-30T23:21:45.359Z,10.03
2022-11-30T23:24:15.825Z,10.33
2022-11-30T23:26:44.889Z,10.13
2022-11-30T23:29:15.460Z,10.63
2022-11-30T23:31:44.660Z,10.33
2022-11-30T23:34:14.932Z,10.23
2022-11-30T23:36:42.758Z,11.37
2022-11-30T23:39:12.588Z,10.70
2022-11-30T23:41:41.030Z,10.47
2022-11-30T23:44:11.134Z,10.60
2022-11-30T23:46:38.978Z,11.10
2022-11-30T23:49:06.852Z,10.00
2022-11-30T23:51:34.669Z,10.63
2022-11-30T23:54:02.463Z,10.23
2022-11-30T23:56:30.228Z,10.57
2022-11-30T23:58:58.107Z,11.30
